sensor_id;sensor_type;location;lat;lon;timestamp;pressure;altitude;pressure_sealevel;temperature;humidity
41862;BME280;27537;57.134;-2.136;2024-03-07T00:00:30;101914.41;;;7.18;100.00
41862;BME280;27537;57.134;-2.136;2024-03-07T00:02:56;101907.41;;;7.33;100.00
41862;BME280;27537;57.134;-2.136;2024-03-07T00:05:23;101909.06;;;7.45;100.00
41862;BME280;27537;57.134;-2.136;2024-03-07T00:07:53;101923.78;;;7.55;100.00
41862;BME280;27537;57.134;-2.136;2024-03-07T00:10:20;101926.47;;;7.44;100.00
41862;BME280;27537;57.134;-2.136;2024-03-07T00:12:49;101922.97;;;7.47;100.00
41862;BME280;27537;57.134;-2.136;2024-03-07T00:15:16;101925.56;;;7.48;100.00
41862;BME280;27537;57.134;-2.136;2024-03-07T00:17:44;101928.16;;;7.51;100.00
41862;BME280;27537;57.134;-2.136;2024-03-07T00:20:11;101934.22;;;7.50;100.00
41862;BME280;27537;57.134;-2.136;2024-03-07T00:22:43;101933.50;;;7.25;100.00
41862;BME280;27537;57.134;-2.136;2024-03-07T00:25:11;101926.69;;;6.93;100.00
41862;BME280;27537;57.134;-2.136;2024-03-07T00:27:39;101919.75;;;6.88;100.00
41862;BME280;27537;57.134;-2.136;2024-03-07T00:30:06;101922.34;;;6.92;100.00
41862;BME280;27537;57.134;-2.136;2024-03-07T00:32:35;101920.63;;;6.91;100.00
41862;BME280;27537;57.134;-2.136;2024-03-07T00:35:03;101923.22;;;6.88;100.00
41862;BME280;27537;57.134;-2.136;2024-03-07T00:37:30;101916.22;;;7.04;100.00
41862;BME280;27537;57.134;-2.136;2024-03-07T00:39:59;101913.66;;;6.99;100.00
41862;BME280;27537;57.134;-2.136;2024-03-07T00:42:26;101921.44;;;7.01;100.00
41862;BME280;27537;57.134;-2.136;2024-03-07T00:44:54;101920.56;;;7.07;100.00
41862;BME280;27537;57.134;-2.136;2024-03-07T00:47:20;101914.50;;;7.03;100.00
41862;BME280;27537;57.134;-2.136;2024-03-07T00:49:47;101919.72;;;6.92;100.00
41862;BME280;27537;57.134;-2.136;2024-03-07T00:52:14;101920.56;;;6.97;100.00
41862;BME280;27537;57.134;-2.136;2024-03-07T00:54:42;101917.06;;;7.09;100.00
41862;BME280;27537;57.134;-2.136;2024-03-07T00:57:09;101921.44;;;7.07;100.00
41862;BME280;27537;57.134;-2.136;2024-03-07T00:59:36;101913.63;;;7.01;100.00
41862;BME280;27537;57.134;-2.136;2024-03-07T01:02:02;101916.22;;;7.02;100.00
41862;BME280;27537;57.134;-2.136;2024-03-07T01:04:30;101915.38;;;7.05;100.00
41862;BME280;27537;57.134;-2.136;2024-03-07T01:07:00;101905.84;;;6.95;100.00
41862;BME280;27537;57.134;-2.136;2024-03-07T01:09:28;101910.19;;;6.90;100.00
41862;BME280;27537;57.134;-2.136;2024-03-07T01:11:55;101904.09;;;7.00;100.00
41862;BME280;27537;57.134;-2.136;2024-03-07T01:14:22;101910.22;;;6.85;100.00
41862;BME280;27537;57.134;-2.136;2024-03-07T01:16:49;101910.16;;;7.03;100.00
41862;BME280;27537;57.134;-2.136;2024-03-07T01:19:16;101911.75;;;7.37;100.00
41862;BME280;27537;57.134;-2.136;2024-03-07T01:21:42;101914.16;;;7.63;100.00
41862;BME280;27537;57.134;-2.136;2024-03-07T01:24:09;101920.41;;;7.42;100.00
41862;BME280;27537;57.134;-2.136;2024-03-07T01:26:36;101913.34;;;7.56;100.00
41862;BME280;27537;57.134;-2.136;2024-03-07T01:29:03;101906.25;;;7.77;100.00
41862;BME280;27537;57.134;-2.136;2024-03-07T01:31:31;101906.53;;;7.31;100.00
41862;BME280;27537;57.134;-2.136;2024-03-07T01:33:57;101916.22;;;7.07;100.00
41862;BME280;27537;57.134;-2.136;2024-03-07T01:36:24;101907.50;;;7.16;100.00
41862;BME280;27537;57.134;-2.136;2024-03-07T01:38:51;101914.47;;;7.12;100.00
41862;BME280;27537;57.134;-2.136;2024-03-07T01:41:18;101910.16;;;7.07;100.00
41862;BME280;27537;57.134;-2.136;2024-03-07T01:43:45;101907.50;;;7.08;100.00
41862;BME280;27537;57.134;-2.136;2024-03-07T01:46:13;101903.16;;;7.13;100.00
41862;BME280;27537;57.134;-2.136;2024-03-07T01:48:40;101896.28;;;7.00;100.00
41862;BME280;27537;57.134;-2.136;2024-03-07T01:51:07;101891.94;;;6.99;100.00
41862;BME280;27537;57.134;-2.136;2024-03-07T01:53:35;101896.28;;;6.94;100.00
41862;BME280;27537;57.134;-2.136;2024-03-07T01:56:03;101904.94;;;6.97;100.00
41862;BME280;27537;57.134;-2.136;2024-03-07T01:58:31;101895.44;;;6.92;100.00
41862;BME280;27537;57.134;-2.136;2024-03-07T02:00:59;101899.75;;;7.02;100.00
41862;BME280;27537;57.134;-2.136;2024-03-07T02:03:26;101892.81;;;6.99;100.00
41862;BME280;27537;57.134;-2.136;2024-03-07T02:05:53;101892.72;;;7.13;100.00
41862;BME280;27537;57.134;-2.136;2024-03-07T02:08:20;101883.22;;;7.12;100.00
41862;BME280;27537;57.134;-2.136;2024-03-07T02:10:47;101890.22;;;6.99;100.00
41862;BME280;27537;57.134;-2.136;2024-03-07T02:13:15;101889.31;;;7.05;100.00
41862;BME280;27537;57.134;-2.136;2024-03-07T02:15:42;101884.91;;;7.13;100.00
41862;BME280;27537;57.134;-2.136;2024-03-07T02:18:12;101892.66;;;7.27;100.00
41862;BME280;27537;57.134;-2.136;2024-03-07T02:20:43;101887.50;;;7.21;100.00
41862;BME280;27537;57.134;-2.136;2024-03-07T02:23:10;101887.38;;;7.41;100.00
41862;BME280;27537;57.134;-2.136;2024-03-07T02:25:37;101889.97;;;7.43;100.00
41862;BME280;27537;57.134;-2.136;2024-03-07T02:28:04;101883.94;;;7.39;100.00
41862;BME280;27537;57.134;-2.136;2024-03-07T02:30:32;101888.28;;;7.38;100.00
41862;BME280;27537;57.134;-2.136;2024-03-07T02:32:59;101880.41;;;7.49;100.00
41862;BME280;27537;57.134;-2.136;2024-03-07T02:35:34;101889.09;;;7.47;100.00
41862;BME280;27537;57.134;-2.136;2024-03-07T02:38:05;101883.03;;;7.45;100.00
41862;BME280;27537;57.134;-2.136;2024-03-07T02:40:32;101874.28;;;7.53;100.00
41862;BME280;27537;57.134;-2.136;2024-03-07T02:42:59;101877.72;;;7.62;100.00
41862;BME280;27537;57.134;-2.136;2024-03-07T02:45:26;101881.16;;;7.62;100.00
41862;BME280;27537;57.134;-2.136;2024-03-07T02:47:53;101888.84;;;7.79;100.00
41862;BME280;27537;57.134;-2.136;2024-03-07T02:50:21;101883.72;;;7.68;100.00
41862;BME280;27537;57.134;-2.136;2024-03-07T02:52:51;101878.56;;;7.60;100.00
41862;BME280;27537;57.134;-2.136;2024-03-07T02:55:19;101874.34;;;7.47;100.00
41862;BME280;27537;57.134;-2.136;2024-03-07T02:57:47;101875.19;;;7.45;100.00
41862;BME280;27537;57.134;-2.136;2024-03-07T03:00:14;101885.69;;;7.32;100.00
41862;BME280;27537;57.134;-2.136;2024-03-07T03:02:48;101883.03;;;7.45;100.00
41862;BME280;27537;57.134;-2.136;2024-03-07T03:05:15;101873.44;;;7.51;100.00
41862;BME280;27537;57.134;-2.136;2024-03-07T03:07:42;101876.97;;;7.39;100.00
41862;BME280;27537;57.134;-2.136;2024-03-07T03:10:24;101883.09;;;7.35;100.00
41862;BME280;27537;57.134;-2.136;2024-03-07T03:12:53;101872.59;;;7.48;100.00
41862;BME280;27537;57.134;-2.136;2024-03-07T03:15:20;101872.59;;;7.45;100.00
41862;BME280;27537;57.134;-2.136;2024-03-07T03:17:47;101882.03;;;7.61;100.00
41862;BME280;27537;57.134;-2.136;2024-03-07T03:20:15;101880.34;;;7.52;100.00
41862;BME280;27537;57.134;-2.136;2024-03-07T03:22:54;101874.28;;;7.53;100.00
41862;BME280;27537;57.134;-2.136;2024-03-07T03:25:41;101879.69;;;7.22;100.00
41862;BME280;27537;57.134;-2.136;2024-03-07T03:28:09;101875.13;;;7.54;100.00
41862;BME280;27537;57.134;-2.136;2024-03-07T03:30:40;101871.59;;;7.64;100.00
41862;BME280;27537;57.134;-2.136;2024-03-07T03:33:08;101870.81;;;7.54;100.00
41862;BME280;27537;57.134;-2.136;2024-03-07T03:35:37;101869.16;;;7.36;100.00
41862;BME280;27537;57.134;-2.136;2024-03-07T03:38:04;101865.56;;;7.56;100.00
41862;BME280;27537;57.134;-2.136;2024-03-07T03:40:31;101882.16;;;7.44;100.00
41862;BME280;27537;57.134;-2.136;2024-03-07T03:42:58;101872.53;;;7.52;100.00
41862;BME280;27537;57.134;-2.136;2024-03-07T03:45:25;101870.59;;;7.79;100.00
41862;BME280;27537;57.134;-2.136;2024-03-07T03:47:52;101868.13;;;7.67;100.00
41862;BME280;27537;57.134;-2.136;2024-03-07T03:50:20;101874.34;;;7.47;100.00
41862;BME280;27537;57.134;-2.136;2024-03-07T03:52:47;101865.69;;;7.37;100.00
41862;BME280;27537;57.134;-2.136;2024-03-07T03:55:14;101882.19;;;7.39;100.00
41862;BME280;27537;57.134;-2.136;2024-03-07T03:57:42;101881.31;;;7.42;100.00
41862;BME280;27537;57.134;-2.136;2024-03-07T04:00:10;101883.06;;;7.37;100.00
41862;BME280;27537;57.134;-2.136;2024-03-07T04:02:41;101880.50;;;7.28;100.00
41862;BME280;27537;57.134;-2.136;2024-03-07T04:05:09;101885.69;;;7.37;100.00
41862;BME280;27537;57.134;-2.136;2024-03-07T04:07:39;101880.44;;;7.40;100.00
41862;BME280;27537;57.134;-2.136;2024-03-07T04:10:06;101881.28;;;7.44;100.00
41862;BME280;27537;57.134;-2.136;2024-03-07T04:12:35;101873.41;;;7.54;100.00
41862;BME280;27537;57.134;-2.136;2024-03-07T04:15:01;101869.00;;;7.59;100.00
41862;BME280;27537;57.134;-2.136;2024-03-07T04:17:30;101873.41;;;7.54;100.00
41862;BME280;27537;57.134;-2.136;2024-03-07T04:19:58;101872.56;;;7.51;100.00
41862;BME280;27537;57.134;-2.136;2024-03-07T04:22:25;101867.38;;;7.46;100.00
41862;BME280;27537;57.134;-2.136;2024-03-07T04:24:53;101878.63;;;7.54;100.00
41862;BME280;27537;57.134;-2.136;2024-03-07T04:27:22;101870.75;;;7.59;100.00
41862;BME280;27537;57.134;-2.136;2024-03-07T04:29:49;101869.06;;;7.55;100.00
41862;BME280;27537;57.134;-2.136;2024-03-07T04:32:16;101874.38;;;7.39;100.00
41862;BME280;27537;57.134;-2.136;2024-03-07T04:34:46;101874.38;;;7.38;100.00
41862;BME280;27537;57.134;-2.136;2024-03-07T04:37:13;101868.28;;;7.42;100.00
41862;BME280;27537;57.134;-2.136;2024-03-07T04:39:41;101877.81;;;7.40;100.00
41862;BME280;27537;57.134;-2.136;2024-03-07T04:42:08;101868.22;;;7.47;100.00
41862;BME280;27537;57.134;-2.136;2024-03-07T04:44:38;101873.50;;;7.42;100.00
41862;BME280;27537;57.134;-2.136;2024-03-07T04:47:06;101872.44;;;7.69;100.00
41862;BME280;27537;57.134;-2.136;2024-03-07T04:49:34;101867.03;;;7.89;100.00
41862;BME280;27537;57.134;-2.136;2024-03-07T04:52:02;101880.31;;;7.60;100.00
41862;BME280;27537;57.134;-2.136;2024-03-07T04:54:30;101876.63;;;7.86;100.00
41862;BME280;27537;57.134;-2.136;2024-03-07T04:56:58;101875.75;;;7.88;100.00
41862;BME280;27537;57.134;-2.136;2024-03-07T04:59:25;101882.66;;;7.95;100.00
41862;BME280;27537;57.134;-2.136;2024-03-07T05:01:52;101879.03;;;8.10;100.00
41862;BME280;27537;57.134;-2.136;2024-03-07T05:04:19;101878.41;;;7.82;100.00
41862;BME280;27537;57.134;-2.136;2024-03-07T05:06:45;101879.41;;;7.66;100.00
41862;BME280;27537;57.134;-2.136;2024-03-07T05:09:15;101881.94;;;7.75;100.00
41862;BME280;27537;57.134;-2.136;2024-03-07T05:11:53;101885.53;;;7.57;100.00
41862;BME280;27537;57.134;-2.136;2024-03-07T05:14:20;101885.53;;;7.62;100.00
41862;BME280;27537;57.134;-2.136;2024-03-07T05:16:48;101884.47;;;7.86;100.00
41862;BME280;27537;57.134;-2.136;2024-03-07T05:19:35;101883.78;;;7.62;100.00
41862;BME280;27537;57.134;-2.136;2024-03-07T05:22:02;101898.63;;;7.51;100.00
41862;BME280;27537;57.134;-2.136;2024-03-07T05:24:32;101883.72;;;7.68;100.00
41862;BME280;27537;57.134;-2.136;2024-03-07T05:27:00;101880.16;;;7.82;100.00
41862;BME280;27537;57.134;-2.136;2024-03-07T05:29:27;101881.91;;;7.79;100.00
41862;BME280;27537;57.134;-2.136;2024-03-07T05:31:54;101892.44;;;7.64;100.00
41862;BME280;27537;57.134;-2.136;2024-03-07T05:34:21;101876.81;;;7.64;100.00
41862;BME280;27537;57.134;-2.136;2024-03-07T05:36:50;101874.94;;;7.82;100.00
41862;BME280;27537;57.134;-2.136;2024-03-07T05:39:17;101873.19;;;7.85;100.00
41862;BME280;27537;57.134;-2.136;2024-03-07T05:41:44;101882.78;;;7.77;100.00
41862;BME280;27537;57.134;-2.136;2024-03-07T05:44:12;101877.53;;;7.86;100.00
41862;BME280;27537;57.134;-2.136;2024-03-07T05:46:40;101887.03;;;7.92;100.00
41862;BME280;27537;57.134;-2.136;2024-03-07T05:49:08;101878.41;;;7.84;100.00
41862;BME280;27537;57.134;-2.136;2024-03-07T05:51:35;101888.06;;;7.72;100.00
41862;BME280;27537;57.134;-2.136;2024-03-07T05:54:02;101888.06;;;7.72;100.00
41862;BME280;27537;57.134;-2.136;2024-03-07T05:56:33;101889.97;;;7.43;100.00
41862;BME280;27537;57.134;-2.136;2024-03-07T05:59:03;101884.44;;;7.89;100.00
41862;BME280;27537;57.134;-2.136;2024-03-07T06:01:33;101881.72;;;8.04;100.00
41862;BME280;27537;57.134;-2.136;2024-03-07T06:04:02;101875.56;;;8.11;100.00
41862;BME280;27537;57.134;-2.136;2024-03-07T06:06:29;101892.25;;;7.89;100.00
41862;BME280;27537;57.134;-2.136;2024-03-07T06:09:01;101886.25;;;7.79;100.00
41862;BME280;27537;57.134;-2.136;2024-03-07T06:11:40;101887.91;;;7.92;100.00
41862;BME280;27537;57.134;-2.136;2024-03-07T06:14:10;101889.84;;;7.64;100.00
41862;BME280;27537;57.134;-2.136;2024-03-07T06:16:40;101886.13;;;7.94;100.00
41862;BME280;27537;57.134;-2.136;2024-03-07T06:19:08;101885.25;;;7.98;100.00
41862;BME280;27537;57.134;-2.136;2024-03-07T06:21:39;101879.97;;;8.03;100.00
41862;BME280;27537;57.134;-2.136;2024-03-07T06:24:06;101888.53;;;8.16;100.00
41862;BME280;27537;57.134;-2.136;2024-03-07T06:26:36;101883.44;;;8.04;100.00
41862;BME280;27537;57.134;-2.136;2024-03-07T06:29:26;101896.53;;;8.01;100.00
41862;BME280;27537;57.134;-2.136;2024-03-07T06:31:56;101890.56;;;7.86;100.00
41862;BME280;27537;57.134;-2.136;2024-03-07T06:34:22;101893.03;;;8.02;100.00
41862;BME280;27537;57.134;-2.136;2024-03-07T06:36:49;101888.53;;;8.21;100.00
41862;BME280;27537;57.134;-2.136;2024-03-07T06:39:16;101900.94;;;7.91;100.00
41862;BME280;27537;57.134;-2.136;2024-03-07T06:41:43;101897.38;;;8.04;100.00
41862;BME280;27537;57.134;-2.136;2024-03-07T06:44:12;101894.75;;;8.04;100.00
41862;BME280;27537;57.134;-2.136;2024-03-07T06:46:38;101900.91;;;7.98;100.00
41862;BME280;27537;57.134;-2.136;2024-03-07T06:49:05;101901.75;;;8.02;100.00
41862;BME280;27537;57.134;-2.136;2024-03-07T06:51:37;101901.66;;;8.11;100.00
41862;BME280;27537;57.134;-2.136;2024-03-07T06:54:04;101892.19;;;7.95;100.00
41862;BME280;27537;57.134;-2.136;2024-03-07T06:56:32;101892.06;;;8.15;100.00
41862;BME280;27537;57.134;-2.136;2024-03-07T06:58:58;101884.31;;;8.06;100.00
41862;BME280;27537;57.134;-2.136;2024-03-07T07:01:25;101895.53;;;8.14;100.00
41862;BME280;27537;57.134;-2.136;2024-03-07T07:03:52;101892.09;;;8.07;100.00
41862;BME280;27537;57.134;-2.136;2024-03-07T07:06:21;101893.91;;;8.02;100.00
41862;BME280;27537;57.134;-2.136;2024-03-07T07:08:47;101887.69;;;8.14;100.00
41862;BME280;27537;57.134;-2.136;2024-03-07T07:11:14;101895.69;;;7.98;100.00
41862;BME280;27537;57.134;-2.136;2024-03-07T07:13:41;101895.72;;;7.91;100.00
41862;BME280;27537;57.134;-2.136;2024-03-07T07:16:09;101893.88;;;8.05;100.00
41862;BME280;27537;57.134;-2.136;2024-03-07T07:18:36;101896.53;;;8.01;100.00
41862;BME280;27537;57.134;-2.136;2024-03-07T07:21:05;101883.31;;;8.19;100.00
41862;BME280;27537;57.134;-2.136;2024-03-07T07:23:32;101897.16;;;8.27;100.00
41862;BME280;27537;57.134;-2.136;2024-03-07T07:25:59;101898.13;;;8.15;100.00
41862;BME280;27537;57.134;-2.136;2024-03-07T07:28:26;101902.31;;;8.30;100.00
41862;BME280;27537;57.134;-2.136;2024-03-07T07:30:53;101898.88;;;8.28;100.00
41862;BME280;27537;57.134;-2.136;2024-03-07T07:33:20;101899.78;;;8.26;100.00
41862;BME280;27537;57.134;-2.136;2024-03-07T07:35:47;101910.34;;;8.07;100.00
41862;BME280;27537;57.134;-2.136;2024-03-07T07:38:14;101904.19;;;8.17;100.00
41862;BME280;27537;57.134;-2.136;2024-03-07T07:40:42;101902.38;;;8.26;100.00
41862;BME280;27537;57.134;-2.136;2024-03-07T07:43:11;101906.91;;;8.07;100.00
41862;BME280;27537;57.134;-2.136;2024-03-07T07:45:54;101898.94;;;8.25;100.00
41862;BME280;27537;57.134;-2.136;2024-03-07T07:48:22;101914.75;;;8.04;100.00
41862;BME280;27537;57.134;-2.136;2024-03-07T07:50:49;101905.91;;;8.22;100.00
41862;BME280;27537;57.134;-2.136;2024-03-07T07:53:18;101911.97;;;8.24;100.00
41862;BME280;27537;57.134;-2.136;2024-03-07T07:55:44;101909.28;;;8.31;100.00
41862;BME280;27537;57.134;-2.136;2024-03-07T07:58:13;101910.97;;;8.39;100.00
41862;BME280;27537;57.134;-2.136;2024-03-07T08:00:40;101914.41;;;8.45;100.00
41862;BME280;27537;57.134;-2.136;2024-03-07T08:03:10;101904.84;;;8.43;100.00
41862;BME280;27537;57.134;-2.136;2024-03-07T08:05:37;101907.41;;;8.49;100.00
41862;BME280;27537;57.134;-2.136;2024-03-07T08:08:06;101909.19;;;8.47;100.00
41862;BME280;27537;57.134;-2.136;2024-03-07T08:10:35;101908.16;;;8.62;100.00
41862;BME280;27537;57.134;-2.136;2024-03-07T08:13:03;101909.94;;;8.55;100.00
41862;BME280;27537;57.134;-2.136;2024-03-07T08:15:32;101910.09;;;8.41;100.00
41862;BME280;27537;57.134;-2.136;2024-03-07T08:18:00;101909.91;;;8.60;100.00
41862;BME280;27537;57.134;-2.136;2024-03-07T08:20:28;101912.50;;;8.63;100.00
41862;BME280;27537;57.134;-2.136;2024-03-07T08:22:56;101909.94;;;8.55;100.00
41862;BME280;27537;57.134;-2.136;2024-03-07T08:25:24;101910.00;;;8.53;100.00
41862;BME280;27537;57.134;-2.136;2024-03-07T08:27:53;101910.94;;;8.42;100.00
41862;BME280;27537;57.134;-2.136;2024-03-07T08:30:21;101909.19;;;8.44;100.00
41862;BME280;27537;57.134;-2.136;2024-03-07T08:32:48;101913.38;;;8.59;100.00
41862;BME280;27537;57.134;-2.136;2024-03-07T08:35:15;101916.13;;;8.46;100.00
41862;BME280;27537;57.134;-2.136;2024-03-07T08:37:45;101915.22;;;8.53;100.00
41862;BME280;27537;57.134;-2.136;2024-03-07T08:40:12;101917.75;;;8.58;100.00
41862;BME280;27537;57.134;-2.136;2024-03-07T08:42:54;101914.22;;;8.62;100.00
41862;BME280;27537;57.134;-2.136;2024-03-07T08:45:20;101907.44;;;8.46;100.00
41862;BME280;27537;57.134;-2.136;2024-03-07T08:47:52;101915.31;;;8.41;100.00
41862;BME280;27537;57.134;-2.136;2024-03-07T08:50:20;101920.50;;;8.44;100.00
41862;BME280;27537;57.134;-2.136;2024-03-07T08:52:49;101921.47;;;8.32;100.00
41862;BME280;27537;57.134;-2.136;2024-03-07T08:55:18;101920.50;;;8.44;100.00
41862;BME280;27537;57.134;-2.136;2024-03-07T08:57:46;101917.78;;;8.55;100.00
41862;BME280;27537;57.134;-2.136;2024-03-07T09:00:16;101910.06;;;8.44;100.00
41862;BME280;27537;57.134;-2.136;2024-03-07T09:02:55;101919.63;;;8.47;100.00
41862;BME280;27537;57.134;-2.136;2024-03-07T09:05:27;101925.75;;;8.41;100.00
41862;BME280;27537;57.134;-2.136;2024-03-07T09:07:55;101922.25;;;8.44;100.00
41862;BME280;27537;57.134;-2.136;2024-03-07T09:10:32;101924.75;;;8.53;100.00
41862;BME280;27537;57.134;-2.136;2024-03-07T09:12:59;101923.91;;;8.51;100.00
41862;BME280;27537;57.134;-2.136;2024-03-07T09:15:26;101925.59;;;8.58;100.00
41862;BME280;27537;57.134;-2.136;2024-03-07T09:17:53;101929.81;;;8.71;100.00
41862;BME280;27537;57.134;-2.136;2024-03-07T09:20:20;101923.69;;;8.74;100.00
41862;BME280;27537;57.134;-2.136;2024-03-07T09:22:48;101929.97;;;8.54;100.00
41862;BME280;27537;57.134;-2.136;2024-03-07T09:25:16;101934.28;;;8.59;100.00
41862;BME280;27537;57.134;-2.136;2024-03-07T09:27:44;101925.78;;;8.33;100.00
41862;BME280;27537;57.134;-2.136;2024-03-07T09:30:11;101933.47;;;8.53;100.00
41862;BME280;27537;57.134;-2.136;2024-03-07T09:32:39;101944.69;;;8.63;100.00
41862;BME280;27537;57.134;-2.136;2024-03-07T09:35:08;101936.84;;;8.63;100.00
41862;BME280;27537;57.134;-2.136;2024-03-07T09:37:42;101934.44;;;8.42;100.00
41862;BME280;27537;57.134;-2.136;2024-03-07T09:40:10;101935.09;;;8.62;100.00
41862;BME280;27537;57.134;-2.136;2024-03-07T09:42:49;101935.22;;;8.51;100.00
41862;BME280;27537;57.134;-2.136;2024-03-07T09:45:19;101939.56;;;8.54;100.00
41862;BME280;27537;57.134;-2.136;2024-03-07T09:47:50;101931.78;;;8.48;100.00
41862;BME280;27537;57.134;-2.136;2024-03-07T09:50:21;101943.03;;;8.56;100.00
41862;BME280;27537;57.134;-2.136;2024-03-07T09:52:50;101934.44;;;8.43;100.00
41862;BME280;27537;57.134;-2.136;2024-03-07T09:55:19;101945.75;;;8.44;100.00
41862;BME280;27537;57.134;-2.136;2024-03-07T09:57:47;101942.88;;;8.71;100.00
41862;BME280;27537;57.134;-2.136;2024-03-07T10:00:19;101944.78;;;8.54;100.00
41862;BME280;27537;57.134;-2.136;2024-03-07T10:02:53;101948.16;;;8.64;100.00
41862;BME280;27537;57.134;-2.136;2024-03-07T10:05:22;101943.97;;;8.47;100.00
41862;BME280;27537;57.134;-2.136;2024-03-07T10:07:49;101941.34;;;8.47;100.00
41862;BME280;27537;57.134;-2.136;2024-03-07T10:10:16;101940.41;;;8.58;100.00
41862;BME280;27537;57.134;-2.136;2024-03-07T10:12:44;101943.69;;;8.77;100.00
41862;BME280;27537;57.134;-2.136;2024-03-07T10:15:10;101941.13;;;8.70;100.00
41862;BME280;27537;57.134;-2.136;2024-03-07T10:17:39;101940.41;;;8.56;100.00
41862;BME280;27537;57.134;-2.136;2024-03-07T10:20:13;101943.13;;;8.47;100.00
41862;BME280;27537;57.134;-2.136;2024-03-07T10:22:42;101941.34;;;8.49;100.00
41862;BME280;27537;57.134;-2.136;2024-03-07T10:25:09;101945.69;;;8.50;100.00
41862;BME280;27537;57.134;-2.136;2024-03-07T10:27:37;101949.09;;;8.57;100.00
41862;BME280;27537;57.134;-2.136;2024-03-07T10:30:05;101955.13;;;8.62;100.00
41862;BME280;27537;57.134;-2.136;2024-03-07T10:32:35;101953.22;;;8.81;100.00
41862;BME280;27537;57.134;-2.136;2024-03-07T10:35:07;101947.19;;;8.74;100.00
41862;BME280;27537;57.134;-2.136;2024-03-07T10:37:36;101958.56;;;8.70;100.00
41862;BME280;27537;57.134;-2.136;2024-03-07T10:40:04;101945.13;;;9.04;100.00
41862;BME280;27537;57.134;-2.136;2024-03-07T10:42:45;101945.16;;;8.99;100.00
41862;BME280;27537;57.134;-2.136;2024-03-07T10:45:19;101941.00;;;8.81;100.00
41862;BME280;27537;57.134;-2.136;2024-03-07T10:47:53;101944.53;;;8.80;100.00
41862;BME280;27537;57.134;-2.136;2024-03-07T10:50:38;101954.78;;;8.94;100.00
41862;BME280;27537;57.134;-2.136;2024-03-07T10:58:42;101957.63;;;8.76;100.00
41862;BME280;27537;57.134;-2.136;2024-03-07T11:01:14;101950.31;;;9.05;100.00
41862;BME280;27537;57.134;-2.136;2024-03-07T11:03:41;101949.66;;;8.88;100.00
41862;BME280;27537;57.134;-2.136;2024-03-07T11:06:10;101956.81;;;8.67;100.00
41862;BME280;27537;57.134;-2.136;2024-03-07T11:08:38;101956.44;;;9.03;100.00
41862;BME280;27537;57.134;-2.136;2024-03-07T11:11:06;101965.06;;;9.09;100.00
41862;BME280;27537;57.134;-2.136;2024-03-07T11:13:33;101970.31;;;9.06;100.00
41862;BME280;27537;57.134;-2.136;2024-03-07T11:16:01;101962.72;;;8.86;100.00
41862;BME280;27537;57.134;-2.136;2024-03-07T11:18:29;101962.03;;;8.69;100.00
41862;BME280;27537;57.134;-2.136;2024-03-07T11:20:56;101958.34;;;8.87;100.00
41862;BME280;27537;57.134;-2.136;2024-03-07T11:23:29;101958.06;;;9.13;100.00
41862;BME280;27537;57.134;-2.136;2024-03-07T11:26:04;101977.13;;;9.23;100.00
41862;BME280;27537;57.134;-2.136;2024-03-07T11:28:36;101959.69;;;9.23;100.00
41862;BME280;27537;57.134;-2.136;2024-03-07T11:31:13;101958.06;;;9.13;100.00
41862;BME280;27537;57.134;-2.136;2024-03-07T11:33:41;101964.94;;;9.19;100.00
41862;BME280;27537;57.134;-2.136;2024-03-07T11:36:09;101968.44;;;9.19;100.00
41862;BME280;27537;57.134;-2.136;2024-03-07T11:38:48;101958.19;;;9.04;100.00
41862;BME280;27537;57.134;-2.136;2024-03-07T11:41:19;101966.25;;;8.82;100.00
41862;BME280;27537;57.134;-2.136;2024-03-07T11:43:46;101952.97;;;9.02;100.00
41862;BME280;27537;57.134;-2.136;2024-03-07T11:46:13;101957.22;;;9.12;100.00
41862;BME280;27537;57.134;-2.136;2024-03-07T11:48:43;101957.34;;;9.02;100.00
41862;BME280;27537;57.134;-2.136;2024-03-07T11:51:14;101962.50;;;9.06;100.00
41862;BME280;27537;57.134;-2.136;2024-03-07T11:53:43;101967.13;;;8.81;100.00
41862;BME280;27537;57.134;-2.136;2024-03-07T11:56:10;101935.44;;;9.12;100.00
41862;BME280;27537;57.134;-2.136;2024-03-07T11:58:44;101955.28;;;9.27;100.00
41862;BME280;27537;57.134;-2.136;2024-03-07T12:01:11;101958.88;;;9.18;100.00
41862;BME280;27537;57.134;-2.136;2024-03-07T12:03:40;101960.38;;;9.36;100.00
41862;BME280;27537;57.134;-2.136;2024-03-07T12:06:08;101952.31;;;9.55;100.00
41862;BME280;27537;57.134;-2.136;2024-03-07T12:08:39;101954.28;;;9.39;100.00
41862;BME280;27537;57.134;-2.136;2024-03-07T12:11:09;101960.53;;;9.25;100.00
41862;BME280;27537;57.134;-2.136;2024-03-07T12:13:39;101961.97;;;9.48;100.00
41862;BME280;27537;57.134;-2.136;2024-03-07T12:16:07;101973.22;;;9.56;100.00
41862;BME280;27537;57.134;-2.136;2024-03-07T12:18:35;101974.56;;;9.15;100.00
41862;BME280;27537;57.134;-2.136;2024-03-07T12:21:04;101981.38;;;9.30;100.00
41862;BME280;27537;57.134;-2.136;2024-03-07T12:23:33;101985.53;;;9.46;100.00
41862;BME280;27537;57.134;-2.136;2024-03-07T12:26:03;101974.59;;;9.13;100.00
41862;BME280;27537;57.134;-2.136;2024-03-07T12:28:31;101966.66;;;9.23;100.00
41862;BME280;27537;57.134;-2.136;2024-03-07T12:31:02;101972.03;;;9.12;100.00
41862;BME280;27537;57.134;-2.136;2024-03-07T12:33:30;101963.75;;;9.46;100.00
41862;BME280;27537;57.134;-2.136;2024-03-07T12:36:02;101974.16;;;9.49;100.00
41862;BME280;27537;57.134;-2.136;2024-03-07T12:38:36;101980.25;;;9.49;100.00
41862;BME280;27537;57.134;-2.136;2024-03-07T12:41:10;101962.28;;;9.25;100.00
41862;BME280;27537;57.134;-2.136;2024-03-07T12:43:43;101971.09;;;9.16;100.00
41862;BME280;27537;57.134;-2.136;2024-03-07T12:46:10;101976.47;;;9.04;100.00
41862;BME280;27537;57.134;-2.136;2024-03-07T12:48:39;101947.06;;;8.86;100.00
41862;BME280;27537;57.134;-2.136;2024-03-07T12:51:06;101956.78;;;8.73;100.00
41862;BME280;27537;57.134;-2.136;2024-03-07T12:53:33;101955.72;;;8.88;100.00